Time;durP1;ratioP1;P1;durP2;ratioP2;P2;SDS_P1;SDS_P2;PMS_P1;PMS_P2;Temp;Humidity;BMP_temperature;BMP_pressure;BME280_temperature;BME280_humidity;BME280_pressure;Samples;Min_cycle;Max_cycle;Signal;HPM_P1;HPM_P2
2022/04/30 00:00:11;;;;;;;25.38;14.10;;;;;;;12.85;62.06;94328.28;5063769;28;20059;-80
2022/04/30 00:02:37;;;;;;;23.85;14.52;;;;;;;12.81;61.99;94324.66;5065956;28;20012;-80
2022/04/30 00:05:03;;;;;;;23.52;14.20;;;;;;;12.81;62.14;94324.66;5065771;28;20040;-81
2022/04/30 00:07:28;;;;;;;22.55;13.80;;;;;;;12.81;62.32;94312.06;5065934;28;20013;-81
2022/04/30 00:09:54;;;;;;;21.30;13.40;;;;;;;12.81;62.36;94320.09;5066062;28;20025;-81
2022/04/30 00:12:19;;;;;;;24.30;12.48;;;;;;;12.80;62.35;94318.53;5065708;28;20017;-81
2022/04/30 00:14:46;;;;;;;22.23;13.18;;;;;;;12.80;62.53;94315.03;5065886;28;20021;-81
2022/04/30 00:17:13;;;;;;;23.00;12.25;;;;;;;12.77;62.44;94319.13;5065657;28;20024;-81
2022/04/30 00:19:38;;;;;;;20.40;12.23;;;;;;;12.79;62.31;94316.94;5065525;28;20024;-81
2022/04/30 00:22:04;;;;;;;19.48;12.00;;;;;;;12.78;62.21;94306.53;5065645;28;20021;-81
2022/04/30 00:24:29;;;;;;;19.20;12.15;;;;;;;12.73;61.92;94320.09;5065441;28;20063;-80
2022/04/30 00:27:01;;;;;;;18.67;12.00;;;;;;;12.70;61.82;94312.69;5065596;28;20012;-80
2022/04/30 00:29:29;;;;;;;19.02;11.90;;;;;;;12.66;62.01;94323.25;5064419;28;20307;-79
2022/04/30 00:31:55;;;;;;;21.02;12.25;;;;;;;12.63;62.01;94323.84;5065564;28;20092;-80
2022/04/30 00:34:20;;;;;;;22.38;13.13;;;;;;;12.62;62.16;94322.31;5065317;28;20258;-80
2022/04/30 00:36:46;;;;;;;18.83;11.50;;;;;;;12.62;62.58;94322.31;5065037;28;20021;-79
2022/04/30 00:39:12;;;;;;;18.95;11.63;;;;;;;12.61;62.68;94320.72;5065335;28;20020;-80
2022/04/30 00:41:42;;;;;;;19.27;11.70;;;;;;;12.57;62.84;94325.88;5065149;28;20024;-80
2022/04/30 00:44:08;;;;;;;19.42;11.65;;;;;;;12.55;62.85;94316.63;5064999;28;20028;-80
2022/04/30 00:46:34;;;;;;;18.83;11.63;;;;;;;12.53;62.57;94330.28;5065171;28;20021;-81
2022/04/30 00:49:01;;;;;;;17.70;11.10;;;;;;;12.51;62.07;94310.31;5064585;28;20025;-81
2022/04/30 00:51:28;;;;;;;23.45;11.95;;;;;;;12.49;62.25;94315.97;5064926;28;20079;-81
2022/04/30 00:53:55;;;;;;;20.30;12.43;;;;;;;12.46;61.89;94313.94;5065357;28;20013;-81
2022/04/30 00:56:29;;;;;;;19.83;11.95;;;;;;;12.45;61.86;94302.44;5064835;28;20041;-81
2022/04/30 00:58:59;;;;;;;17.85;11.10;;;;;;;12.47;61.93;94314.72;5065217;28;20227;-81
2022/04/30 01:01:24;;;;;;;18.05;12.07;;;;;;;12.45;61.38;94312.34;5065062;28;20039;-81
2022/04/30 01:03:50;;;;;;;26.80;10.60;;;;;;;12.47;60.61;94310.16;5064905;28;20020;-82
2022/04/30 01:06:20;;;;;;;22.30;11.77;;;;;;;12.43;61.02;94314.56;5064841;28;20091;-82
2022/04/30 01:08:47;;;;;;;19.40;11.98;;;;;;;12.43;60.79;94307.31;5064962;28;20055;-84
2022/04/30 01:11:13;;;;;;;20.58;11.05;;;;;;;12.43;61.11;94309.22;5064738;28;20307;-83
2022/04/30 01:13:39;;;;;;;20.80;12.05;;;;;;;12.41;61.24;94308.75;5064310;28;20060;-82
2022/04/30 01:16:07;;;;;;;20.25;11.73;;;;;;;12.34;61.23;94306.53;5064754;28;20036;-81
2022/04/30 01:18:34;;;;;;;19.85;11.85;;;;;;;12.34;61.85;94303.09;5064583;28;20043;-82
2022/04/30 01:21:05;;;;;;;21.90;10.75;;;;;;;12.30;61.96;94299.47;5064751;28;20062;-81
2022/04/30 01:23:32;;;;;;;18.13;10.85;;;;;;;12.25;62.47;94297.72;5064558;28;20035;-81
2022/04/30 01:26:01;;;;;;;16.50;11.07;;;;;;;12.22;62.63;94306.38;5064442;28;20024;-80
2022/04/30 01:28:27;;;;;;;19.55;11.10;;;;;;;12.21;62.72;94302.91;5064683;28;20095;-83
2022/04/30 01:30:52;;;;;;;18.75;11.32;;;;;;;12.16;62.79;94295.03;5064411;28;20098;-82
2022/04/30 01:37:22;;;;;;;20.38;11.32;;;;;;;12.07;62.92;94294.25;5064403;28;20032;-83
2022/04/30 01:38:58;;;;;;;18.63;10.18;;;;;;;12.03;63.04;94306.66;5064324;28;20219;-83
2022/04/30 01:41:24;;;;;;;16.80;11.15;;;;;;;11.99;63.03;94303.03;5064240;28;20036;-82
2022/04/30 01:43:50;;;;;;;18.23;11.32;;;;;;;11.91;63.11;94298.44;5064279;28;20092;-83
2022/04/30 01:46:16;;;;;;;18.40;11.75;;;;;;;11.83;63.20;94303.41;5064316;28;20287;-83
2022/04/30 01:48:42;;;;;;;16.17;10.23;;;;;;;11.79;63.13;94297.13;5064018;28;20029;-83
2022/04/30 01:51:07;;;;;;;20.08;11.40;;;;;;;11.76;63.08;94300.38;5064047;28;20025;-83
2022/04/30 01:53:34;;;;;;;16.98;10.50;;;;;;;11.69;63.15;94292.06;5062672;28;20053;-83
2022/04/30 01:56:00;;;;;;;16.92;10.68;;;;;;;11.67;63.43;94299.59;5063814;28;20048;-83
2022/04/30 01:58:26;;;;;;;18.83;12.13;;;;;;;11.64;63.38;94294.84;5063859;28;20028;-83
2022/04/30 02:00:52;;;;;;;20.52;11.95;;;;;;;11.61;63.42;94298.16;5062713;28;20106;-83
2022/04/30 02:03:18;;;;;;;21.23;12.75;;;;;;;11.58;63.58;94293.41;5063847;28;20024;-83
2022/04/30 02:05:44;;;;;;;18.10;11.32;;;;;;;11.49;64.08;94298.72;5063752;28;20024;-83
2022/04/30 02:08:17;;;;;;;22.08;11.27;;;;;;;11.49;64.41;94295.28;5062446;28;20024;-82
2022/04/30 02:10:42;;;;;;;;;;;;;;;11.44;64.68;94301.53;5064278;28;20207;-83
2022/04/30 02:13:09;;;;;;;18.20;10.65;;;;;;;11.35;64.98;94304.16;5063633;28;20035;-82
2022/04/30 02:15:39;;;;;;;19.98;11.40;;;;;;;11.38;65.08;94306.22;5063640;28;20114;-82
2022/04/30 02:18:06;;;;;;;20.30;12.00;;;;;;;11.36;65.15;94299.63;5063238;28;20029;-82
2022/04/30 02:20:34;;;;;;;17.45;10.90;;;;;;;11.34;65.24;94307.16;5063574;28;20017;-82
2022/04/30 02:23:09;;;;;;;22.02;12.02;;;;;;;11.32;65.04;94304.78;5062860;28;20024;-82
2022/04/30 02:25:36;;;;;;;19.60;13.00;;;;;;;11.27;65.13;94291.53;5063354;28;20044;-82
2022/04/30 02:28:04;;;;;;;18.98;11.85;;;;;;;11.25;65.36;94301.75;5063327;28;20200;-82
2022/04/30 02:30:32;;;;;;;22.27;12.18;;;;;;;11.19;65.44;94289.63;5063321;28;20017;-82
2022/04/30 02:33:08;;;;;;;20.63;12.85;;;;;;;11.18;65.72;94282.72;5062327;28;20067;-82
2022/04/30 02:35:34;;;;;;;18.92;12.05;;;;;;;11.19;65.93;94284.28;5063090;28;20020;-82
2022/04/30 02:38:01;;;;;;;19.70;12.30;;;;;;;11.19;65.98;94286.94;5062950;28;20323;-82
2022/04/30 02:40:29;;;;;;;24.23;13.13;;;;;;;11.17;65.96;94287.28;5063356;28;20223;-82
2022/04/30 02:43:00;;;;;;;19.83;13.35;;;;;;;11.17;66.51;94292.63;5063279;28;20017;-82
2022/04/30 02:45:26;;;;;;;21.17;12.67;;;;;;;11.14;66.26;94281.75;5063361;28;20021;-82
2022/04/30 02:47:56;;;;;;;25.42;13.90;;;;;;;11.12;66.17;94289.28;5061857;28;20215;-83
2022/04/30 02:50:23;;;;;;;25.77;13.90;;;;;;;11.07;66.22;94284.06;5062842;28;20020;-82
2022/04/30 02:52:50;;;;;;;26.67;14.18;;;;;;;11.04;66.28;94286.25;5063128;28;20067;-82
2022/04/30 02:55:16;;;;;;;23.20;13.25;;;;;;;11.03;66.20;94287.34;5062912;28;20021;-82
2022/04/30 03:00:34;;;;;;;23.90;13.23;;;;;;;10.97;66.09;94285.91;5062914;28;20070;-82
2022/04/30 03:02:59;;;;;;;25.38;14.85;;;;;;;10.94;66.42;94283.06;5062784;28;20021;-82
2022/04/30 03:05:25;;;;;;;25.15;13.65;;;;;;;10.93;66.19;94284.94;5062961;28;20078;-82
2022/04/30 03:07:51;;;;;;;23.75;13.45;;;;;;;10.89;66.33;94275.16;5062927;28;20013;-82
2022/04/30 03:10:16;;;;;;;24.05;13.75;;;;;;;10.83;66.34;94275.31;5062826;28;20021;-82
2022/04/30 03:12:42;;;;;;;25.52;14.55;;;;;;;10.78;66.56;94277.28;5062440;28;20275;-82
2022/04/30 03:15:09;;;;;;;21.63;13.15;;;;;;;10.75;66.43;94275.25;5062937;28;20227;-83
2022/04/30 03:23:04;;;;;;;29.70;15.07;;;;;;;10.68;66.83;94274.88;5062726;28;20032;-83
2022/04/30 03:25:30;;;;;;;26.05;15.25;;;;;;;10.64;66.55;94275.50;5062684;28;20029;-83
2022/04/30 03:27:55;;;;;;;27.27;15.98;;;;;;;10.59;66.76;94272.94;5062769;28;20028;-84
2022/04/30 03:30:22;;;;;;;22.92;14.25;;;;;;;10.54;67.13;94281.06;5061583;28;20319;-83
2022/04/30 03:32:49;;;;;;;23.77;13.60;;;;;;;10.50;66.87;94280.09;5062519;28;20100;-83
2022/04/30 03:35:15;;;;;;;22.65;13.77;;;;;;;10.52;67.12;94290.44;5065959;28;20024;-83
2022/04/30 03:37:41;;;;;;;25.73;14.52;;;;;;;10.50;67.00;94280.09;5066579;28;20100;-84
2022/04/30 03:40:07;;;;;;;22.90;13.95;;;;;;;10.48;67.25;94294.78;5066530;28;20071;-83
2022/04/30 03:42:33;;;;;;;23.77;13.70;;;;;;;10.44;67.10;94295.41;5066375;28;20135;-83
2022/04/30 03:45:01;;;;;;;19.67;12.00;;;;;;;10.46;66.98;94302.28;5066464;28;20036;-83
2022/04/30 03:47:27;;;;;;;20.67;11.98;;;;;;;10.44;67.00;94294.59;5066602;28;20088;-84
2022/04/30 03:49:52;;;;;;;19.67;11.57;;;;;;;10.40;67.06;94297.09;5066544;28;20021;-85
2022/04/30 03:52:18;;;;;;;17.85;11.68;;;;;;;10.38;66.97;94293.13;5066331;28;20044;-84
2022/04/30 03:54:43;;;;;;;18.10;11.43;;;;;;;10.38;67.19;94303.78;5066343;28;20075;-83
2022/04/30 03:57:09;;;;;;;18.50;12.10;;;;;;;10.32;67.36;94300.47;5065780;28;20048;-83
2022/04/30 03:59:34;;;;;;;21.00;11.57;;;;;;;10.30;67.33;94307.16;5065903;28;20094;-83
2022/04/30 04:02:00;;;;;;;22.92;11.38;;;;;;;10.33;67.61;94302.03;5066043;28;20021;-82
2022/04/30 04:04:27;;;;;;;18.25;11.15;;;;;;;10.28;67.49;94304.00;5066154;28;20044;-83
2022/04/30 04:06:53;;;;;;;20.95;12.30;;;;;;;10.16;67.99;94307.19;5066125;28;20020;-83
2022/04/30 04:09:19;;;;;;;20.77;11.18;;;;;;;10.10;68.17;94306.50;5065832;28;20036;-84
2022/04/30 04:11:44;;;;;;;17.42;10.75;;;;;;;10.09;68.64;94302.25;5065869;28;20039;-83
2022/04/30 04:19:38;;;;;;;18.13;10.80;;;;;;;10.17;68.72;94308.75;5065506;28;20074;-84
2022/04/30 04:22:03;;;;;;;17.48;10.95;;;;;;;10.23;68.76;94303.00;5065702;28;20323;-84
2022/04/30 04:27:14;;;;;;;18.17;12.00;;;;;;;10.44;68.11;94307.91;5065536;28;20023;-84
2022/04/30 04:29:40;;;;;;;20.50;11.30;;;;;;;10.53;67.93;94314.13;5065505;28;20204;-82
2022/04/30 04:32:06;;;;;;;19.45;12.02;;;;;;;10.65;67.87;94308.25;5065507;28;20102;-82
2022/04/30 04:34:31;;;;;;;22.27;12.10;;;;;;;10.72;67.01;94310.50;5065258;28;20021;-83
2022/04/30 04:36:57;;;;;;;19.23;11.55;;;;;;;10.81;66.28;94311.38;5065527;28;20083;-82
2022/04/30 04:39:22;;;;;;;20.20;12.07;;;;;;;10.87;66.34;94299.50;5065398;28;20021;-82
2022/04/30 04:41:48;;;;;;;20.85;11.80;;;;;;;10.95;66.44;94304.09;5065185;28;20025;-82
2022/04/30 04:44:14;;;;;;;25.15;11.63;;;;;;;10.94;66.16;94309.72;5065247;28;20021;-82
2022/04/30 04:46:40;;;;;;;19.75;11.55;;;;;;;10.95;66.26;94306.75;5063427;28;20017;-81
2022/04/30 04:49:06;;;;;;;21.00;11.80;;;;;;;10.97;66.65;94303.75;5065056;28;20088;-82
2022/04/30 04:51:33;;;;;;;17.90;11.63;;;;;;;11.07;66.80;94310.75;5065103;28;20341;-81
2022/04/30 04:54:01;;;;;;;21.02;10.80;;;;;;;11.14;66.96;94319.13;5065106;28;20083;-81
2022/04/30 04:56:26;;;;;;;18.35;11.30;;;;;;;11.18;66.38;94317.41;5065016;28;20104;-82
2022/04/30 04:58:52;;;;;;;22.65;11.68;;;;;;;11.20;66.01;94323.22;5063770;28;20338;-81
2022/04/30 05:01:17;;;;;;;19.58;11.50;;;;;;;11.28;65.81;94317.16;5064994;28;20032;-81
2022/04/30 05:03:43;;;;;;;19.15;10.82;;;;;;;11.38;65.44;94319.56;5065006;28;20017;-82
2022/04/30 05:06:08;;;;;;;17.83;11.02;;;;;;;11.49;64.91;94321.97;5064920;28;20227;-82
2022/04/30 05:08:34;;;;;;;21.70;11.88;;;;;;;11.57;64.66;94321.22;5063861;28;20329;-81
2022/04/30 05:10:59;;;;;;;21.88;12.35;;;;;;;11.64;64.34;94321.53;5064744;28;20365;-82
2022/04/30 05:13:25;;;;;;;28.75;12.07;;;;;;;11.74;64.06;94329.28;5064783;28;20031;-83
2022/04/30 05:15:50;;;;;;;21.60;11.63;;;;;;;11.80;63.60;94324.59;5064672;28;20032;-83
2022/04/30 05:18:15;;;;;;;20.15;12.07;;;;;;;11.82;63.31;94328.56;5064611;28;20013;-84
2022/04/30 05:20:41;;;;;;;21.20;12.93;;;;;;;11.85;63.27;94319.91;5064513;28;20322;-82
2022/04/30 05:23:06;;;;;;;26.10;11.93;;;;;;;11.85;63.19;94327.16;5064748;28;20209;-83
2022/04/30 05:25:32;;;;;;;20.88;12.25;;;;;;;11.91;63.14;94330.50;5064546;28;20334;-83
2022/04/30 05:27:57;;;;;;;19.05;11.85;;;;;;;11.95;63.38;94321.56;5064459;28;20025;-82
2022/04/30 05:30:26;;;;;;;24.17;11.32;;;;;;;12.00;62.83;94329.41;5064318;28;20016;-85
2022/04/30 05:32:51;;;;;;;21.10;11.13;;;;;;;12.06;62.42;94327.38;5064613;28;20025;-85
2022/04/30 05:35:17;;;;;;;22.52;12.15;;;;;;;12.06;62.84;94334.63;5064348;28;20032;-85
2022/04/30 05:37:45;;;;;;;22.65;12.52;;;;;;;12.11;62.10;94327.25;5064294;28;20067;-84
2022/04/30 05:40:11;;;;;;;16.45;11.00;;;;;;;12.11;61.74;94327.25;5064220;28;20039;-83
2022/04/30 05:42:36;;;;;;;25.88;11.68;;;;;;;12.18;62.00;94329.47;5063081;28;20020;-84
2022/04/30 05:45:06;;;;;;;21.25;11.10;;;;;;;12.28;62.08;94331.84;5064275;28;20024;-84
2022/04/30 05:47:34;;;;;;;20.13;12.27;;;;;;;12.43;61.90;94335.94;5063611;28;20020;-84
2022/04/30 05:50:00;;;;;;;18.73;11.18;;;;;;;12.54;61.27;94333.78;5064431;28;20048;-85
2022/04/30 05:52:25;;;;;;;20.63;12.07;;;;;;;12.62;60.83;94341.03;5064372;28;20025;-85
2022/04/30 05:54:51;;;;;;;21.00;12.75;;;;;;;12.71;60.29;94346.38;5064829;28;20021;-85
2022/04/30 05:57:16;;;;;;;29.08;12.00;;;;;;;12.78;60.43;94344.00;5062899;28;20204;-86
2022/04/30 05:59:42;;;;;;;23.63;12.00;;;;;;;12.87;60.83;94338.66;5064558;28;20024;-85
2022/04/30 06:02:07;;;;;;;20.35;12.05;;;;;;;12.90;60.19;94341.47;5064080;28;20024;-85
2022/04/30 06:04:33;;;;;;;19.00;11.63;;;;;;;12.97;59.84;94344.47;5063802;28;20092;-86
2022/04/30 06:06:58;;;;;;;21.85;11.73;;;;;;;13.07;59.47;94342.56;5062941;28;20024;-84
2022/04/30 06:09:25;;;;;;;20.60;11.90;;;;;;;13.12;59.78;94347.75;5064266;28;20029;-85
2022/04/30 06:11:50;;;;;;;20.35;12.13;;;;;;;13.23;60.02;94346.34;5063935;28;20024;-84
2022/04/30 06:14:16;;;;;;;22.75;11.15;;;;;;;13.34;59.49;94347.59;5063761;28;20028;-84
2022/04/30 06:16:42;;;;;;;30.27;12.13;;;;;;;13.49;58.63;94342.84;5063753;28;20033;-84
2022/04/30 06:19:07;;;;;;;26.23;12.55;;;;;;;13.59;58.26;94345.19;5063724;28;20067;-85
2022/04/30 06:21:33;;;;;;;21.50;11.45;;;;;;;13.71;58.06;94349.88;5063467;28;20215;-83
2022/04/30 06:23:58;;;;;;;20.20;12.32;;;;;;;13.77;57.92;94349.38;5063702;28;20048;-83
2022/04/30 06:26:24;;;;;;;26.02;13.82;;;;;;;13.87;57.55;94336.75;5063415;28;20067;-83
2022/04/30 06:28:49;;;;;;;25.73;12.32;;;;;;;13.94;57.29;94345.03;5063280;28;20033;-82
2022/04/30 06:31:15;;;;;;;17.17;10.82;;;;;;;14.00;57.22;94347.25;5063265;28;20017;-86
2022/04/30 06:33:40;;;;;;;23.25;11.40;;;;;;;14.08;56.83;94348.28;5062269;28;20255;-85
2022/04/30 06:36:06;;;;;;;23.33;11.73;;;;;;;14.14;56.90;94344.31;5063332;28;20044;-85
2022/04/30 06:38:31;;;;;;;17.00;10.65;;;;;;;14.24;55.88;94345.84;5063361;28;20021;-85
2022/04/30 06:40:57;;;;;;;18.48;10.73;;;;;;;14.31;54.84;94339.97;5062221;28;20024;-86
2022/04/30 06:43:22;;;;;;;15.52;9.60;;;;;;;14.36;54.82;94339.81;5062949;28;20021;-87
2022/04/30 06:45:47;;;;;;;17.13;10.52;;;;;;;14.46;54.70;94336.75;5063261;28;20180;-87
2022/04/30 06:48:13;;;;;;;20.00;10.10;;;;;;;14.53;54.60;94342.38;5063084;28;20032;-84
2022/04/30 06:50:38;;;;;;;34.28;10.50;;;;;;;14.63;54.35;94333.16;5062908;28;20021;-72
2022/04/30 06:58:41;;;;;;;13.32;8.70;;;;;;;15.04;51.36;94326.22;5062497;28;20055;-72
2022/04/30 07:01:30;;;;;;;14.52;8.73;;;;;;;15.17;52.14;94333.22;5062772;28;20025;-72
2022/04/30 07:04:02;;;;;;;13.27;8.43;;;;;;;15.33;51.09;94330.69;5062616;28;20024;-72
2022/04/30 07:06:31;;;;;;;12.02;7.78;;;;;;;15.43;50.04;94330.28;5062641;28;20040;-72
2022/04/30 07:08:57;;;;;;;19.05;8.00;;;;;;;15.62;49.83;94324.38;5062326;28;20040;-72
2022/04/30 07:11:22;;;;;;;12.15;7.80;;;;;;;15.70;48.93;94320.03;5062560;28;20033;-76
2022/04/30 07:13:48;;;;;;;23.50;9.10;;;;;;;15.81;48.71;94318.53;5062874;28;20025;-82
2022/04/30 07:16:14;;;;;;;11.05;7.63;;;;;;;15.93;48.02;94325.78;5061699;28;20036;-82
2022/04/30 07:18:39;;;;;;;11.55;8.43;;;;;;;16.01;47.61;94327.59;5062510;28;20021;-82
2022/04/30 07:21:04;;;;;;;14.65;8.48;;;;;;;16.10;47.59;94324.81;5062645;28;20045;-83
2022/04/30 07:23:31;;;;;;;16.10;7.88;;;;;;;16.20;46.76;94337.00;5061522;28;20223;-83
2022/04/30 07:25:56;;;;;;;14.02;8.80;;;;;;;16.23;47.01;94329.06;5063194;28;20084;-85
2022/04/30 07:28:26;;;;;;;10.55;7.28;;;;;;;16.21;47.19;94319.75;5062654;28;20365;-85
2022/04/30 07:30:52;;;;;;;14.85;7.93;;;;;;;16.19;47.09;94314.72;5062354;28;20116;-83
2022/04/30 07:33:17;;;;;;;18.95;7.90;;;;;;;16.31;47.78;94322.00;5062568;28;20028;-84
2022/04/30 07:35:43;;;;;;;13.07;8.45;;;;;;;16.36;47.50;94318.28;5061537;28;20028;-85
2022/04/30 07:38:08;;;;;;;12.32;8.20;;;;;;;16.41;46.56;94318.06;5062496;28;20021;-85
2022/04/30 07:40:36;;;;;;;11.82;7.50;;;;;;;16.42;46.84;94317.72;5062412;28;20017;-86
2022/04/30 07:43:02;;;;;;;16.50;8.15;;;;;;;16.49;46.92;94319.06;5062635;28;20021;-85
2022/04/30 07:45:28;;;;;;;11.90;8.32;;;;;;;16.43;45.98;94323.88;5062574;28;20028;-83
2022/04/30 07:47:55;;;;;;;12.45;7.18;;;;;;;16.46;46.89;94315.13;5062554;28;20016;-84
2022/04/30 07:50:21;;;;;;;13.05;7.93;;;;;;;16.54;46.82;94306.16;5062344;28;20029;-84
2022/04/30 07:52:47;;;;;;;15.82;7.07;;;;;;;16.68;46.16;94310.38;5062463;28;20098;-84
2022/04/30 07:55:13;;;;;;;13.35;7.00;;;;;;;16.75;45.59;94313.28;5062408;28;20036;-85
2022/04/30 07:57:38;;;;;;;12.93;7.50;;;;;;;16.83;46.05;94312.38;5062088;28;20088;-86
2022/04/30 08:00:05;;;;;;;13.63;7.55;;;;;;;16.91;45.74;94302.59;5061991;28;20028;-80
2022/04/30 08:02:30;;;;;;;10.57;7.55;;;;;;;17.00;45.04;94306.72;5062318;28;20021;-81
2022/04/30 08:04:55;;;;;;;14.48;5.72;;;;;;;17.14;43.50;94306.34;5062353;28;20047;-81
2022/04/30 08:07:21;;;;;;;12.88;6.65;;;;;;;17.19;42.63;94302.59;5062257;28;20017;-79
2022/04/30 08:09:46;;;;;;;13.73;7.18;;;;;;;17.23;43.18;94300.78;5062103;28;20043;-78
2022/04/30 08:12:13;;;;;;;12.65;7.10;;;;;;;17.30;43.28;94302.88;5062270;28;20028;-77
2022/04/30 08:14:39;;;;;;;13.05;7.10;;;;;;;17.41;43.20;94301.25;5062048;28;20043;-77
2022/04/30 08:17:05;;;;;;;10.02;6.70;;;;;;;17.53;42.15;94289.66;5062047;28;20021;-78
2022/04/30 08:19:31;;;;;;;10.00;6.00;;;;;;;17.59;40.93;94301.72;5062096;28;20087;-77
2022/04/30 08:21:56;;;;;;;10.77;6.00;;;;;;;17.69;39.55;94303.91;5064626;28;20033;-78
2022/04/30 08:24:22;;;;;;;10.15;6.78;;;;;;;17.61;40.34;94296.78;5065447;28;20021;-80
2022/04/30 08:26:49;;;;;;;11.63;6.78;;;;;;;17.69;40.76;94298.53;5065408;28;20017;-78
2022/04/30 08:29:15;;;;;;;10.55;7.28;;;;;;;17.51;40.29;94297.28;5065186;28;20025;-82
2022/04/30 08:31:40;;;;;;;8.75;5.97;;;;;;;17.47;40.86;94297.19;5065435;28;20322;-82
2022/04/30 08:34:06;;;;;;;10.50;6.60;;;;;;;17.54;41.18;94291.19;5065374;28;20043;-84
2022/04/30 08:36:31;;;;;;;11.32;6.50;;;;;;;17.71;44.56;94298.97;5065298;28;20315;-80
2022/04/30 08:38:57;;;;;;;10.55;6.50;;;;;;;17.95;45.81;94303.44;5065306;28;20063;-79
2022/04/30 08:41:22;;;;;;;13.38;5.53;;;;;;;18.16;40.27;94292.34;5065384;28;20032;-79
2022/04/30 08:43:49;;;;;;;13.43;5.43;;;;;;;18.30;39.63;94288.41;5065253;28;20032;-78
2022/04/30 08:46:18;;;;;;;9.30;5.70;;;;;;;18.34;39.30;94290.06;5065325;28;20232;-77
2022/04/30 08:48:45;;;;;;;11.07;6.25;;;;;;;18.36;38.96;94287.78;5065233;28;20033;-78
2022/04/30 08:51:11;;;;;;;8.25;5.50;;;;;;;18.44;38.75;94291.44;5065370;28;20025;-79
2022/04/30 08:53:37;;;;;;;8.73;5.22;;;;;;;18.42;37.56;94281.00;5065206;28;20369;-78
2022/04/30 08:56:09;;;;;;;11.32;5.18;;;;;;;18.44;37.68;94284.13;5065035;28;20048;-78
2022/04/30 08:58:34;;;;;;;;;;;;;;;18.56;38.13;94283.22;5065126;28;20028;-77
2022/04/30 09:01:02;;;;;;;15.10;5.82;;;;;;;18.59;39.38;94285.19;5065227;28;19955;-77
2022/04/30 09:03:33;;;;;;;9.05;6.00;;;;;;;18.65;39.72;94275.69;5065165;28;20223;-81
2022/04/30 09:06:00;;;;;;;16.25;8.32;;;;;;;18.52;40.73;94274.25;5064960;28;20025;-81
2022/04/30 09:08:25;;;;;;;18.80;8.57;;;;;;;18.55;40.45;94270.06;5064633;28;20019;-81
2022/04/30 09:10:51;;;;;;;47.33;13.23;;;;;;;18.49;39.98;94266.84;5064568;28;20041;-80
2022/04/30 09:13:18;;;;;;;39.58;12.65;;;;;;;18.53;40.56;94259.63;5064539;28;20021;-82
2022/04/30 09:15:46;;;;;;;24.15;8.25;;;;;;;18.60;40.60;94265.19;5064354;28;20036;-81
2022/04/30 09:18:14;;;;;;;35.65;9.48;;;;;;;18.59;40.69;94269.00;5064600;28;20238;-83
2022/04/30 09:20:47;;;;;;;16.42;6.65;;;;;;;18.73;41.31;94275.84;5064758;28;20083;-82
2022/04/30 09:23:24;;;;;;;22.40;7.47;;;;;;;18.87;41.64;94268.06;5064579;28;20083;-81
2022/04/30 09:25:52;;;;;;;24.50;9.27;;;;;;;18.98;40.76;94274.44;5064302;28;20040;-82
2022/04/30 09:28:33;;;;;;;19.33;7.25;;;;;;;18.93;40.55;94272.03;5064511;28;20244;-80
2022/04/30 09:31:18;;;;;;;10.80;6.20;;;;;;;18.91;40.78;94268.91;5064148;28;20100;-79
2022/04/30 09:33:55;;;;;;;15.43;5.90;;;;;;;18.80;40.63;94262.50;5064156;28;20044;-79
2022/04/30 09:39:16;;;;;;;15.38;5.97;;;;;;;18.91;41.02;94266.22;5064131;28;20024;-80
2022/04/30 09:41:41;;;;;;;9.45;5.80;;;;;;;18.99;40.07;94256.31;5063978;28;20223;-80
2022/04/30 09:44:09;;;;;;;14.25;5.45;;;;;;;18.92;39.67;94264.28;5063774;28;20021;-79
2022/04/30 09:46:36;;;;;;;8.30;5.30;;;;;;;18.80;40.16;94260.59;5063450;28;20086;-79
2022/04/30 09:54:37;;;;;;;13.20;4.15;;;;;;;18.78;39.71;94249.31;5063861;28;20381;-80
2022/04/30 09:57:09;;;;;;;20.35;5.63;;;;;;;19.03;40.64;94254.47;5063672;28;20063;-80
2022/04/30 09:59:37;;;;;;;25.50;5.68;;;;;;;19.04;39.23;94256.81;5063941;28;20029;-78
2022/04/30 10:02:07;;;;;;;157.52;9.60;;;;;;;19.06;38.13;94242.19;5063876;28;20028;-78
2022/04/30 10:04:36;;;;;;;328.52;19.50;;;;;;;18.98;38.56;94242.03;5063798;28;20020;-84
2022/04/30 10:07:04;;;;;;;133.85;11.05;;;;;;;19.13;38.07;94235.00;5063817;28;20017;-80
2022/04/30 10:09:42;;;;;;;412.30;29.45;;;;;;;19.21;38.15;94236.69;5063683;28;20029;-81
2022/04/30 10:12:32;;;;;;;14.55;4.85;;;;;;;19.32;37.99;94238.81;5063333;28;20097;-83
2022/04/30 10:15:23;;;;;;;20.95;7.10;;;;;;;19.22;37.87;94232.06;5062522;28;20025;-75
2022/04/30 10:17:54;;;;;;;7.30;3.50;;;;;;;19.10;38.21;94224.91;5062965;28;20350;-78
2022/04/30 10:20:32;;;;;;;7.03;3.75;;;;;;;19.18;37.67;94228.50;5063038;28;20020;-76
2022/04/30 10:22:59;;;;;;;4.75;3.15;;;;;;;19.33;36.39;94224.91;5062808;28;20051;-76
2022/04/30 10:25:34;;;;;;;5.90;3.45;;;;;;;19.44;36.20;94225.13;5062890;28;20054;-75
2022/04/30 10:28:24;;;;;;;5.55;3.50;;;;;;;19.58;36.09;94216.44;5061991;28;20327;-75
2022/04/30 10:31:09;;;;;;;5.55;3.72;;;;;;;19.69;34.84;94212.00;5062700;28;20338;-76
2022/04/30 10:33:35;;;;;;;7.45;3.50;;;;;;;19.75;35.32;94210.56;5063132;28;20067;-76
2022/04/30 10:36:09;;;;;;;9.77;3.53;;;;;;;19.83;34.88;94214.97;5063204;28;20032;-76
2022/04/30 10:38:35;;;;;;;5.40;3.80;;;;;;;19.62;34.95;94207.25;5062822;28;20334;-76
2022/04/30 10:41:02;;;;;;;8.43;3.70;;;;;;;19.81;35.41;94211.06;5063082;28;20025;-76
2022/04/30 10:43:34;;;;;;;6.18;3.92;;;;;;;19.96;35.55;94207.41;5061998;28;20028;-76
2022/04/30 10:46:01;;;;;;;8.00;3.47;;;;;;;20.07;35.75;94201.38;5062958;28;20127;-76
2022/04/30 10:48:27;;;;;;;5.80;3.65;;;;;;;20.02;35.28;94194.34;5062863;28;20017;-76
2022/04/30 10:51:13;;;;;;;4.72;3.35;;;;;;;19.84;35.01;94194.91;5062546;28;20040;-76
2022/04/30 10:53:41;;;;;;;8.15;4.13;;;;;;;19.75;35.47;94202.47;5062728;28;20254;-76
2022/04/30 10:56:07;;;;;;;4.95;3.25;;;;;;;19.63;36.67;94208.81;5062337;28;20048;-77
2022/04/30 10:58:35;;;;;;;12.25;3.67;;;;;;;19.80;37.15;94204.06;5062587;28;20035;-76
2022/04/30 11:01:18;;;;;;;8.15;3.78;;;;;;;20.13;36.60;94199.91;5062746;28;20223;-76
2022/04/30 11:03:44;;;;;;;;;;;;;;;20.21;35.03;94205.09;5062760;28;20031;-75
2022/04/30 11:06:21;;;;;;;6.00;3.58;;;;;;;20.32;34.45;94207.91;5062351;28;19927;-75
2022/04/30 11:09:16;;;;;;;5.43;3.45;;;;;;;20.00;34.46;94204.75;5062540;28;20219;-75
2022/04/30 11:11:45;;;;;;;7.65;3.42;;;;;;;20.32;35.35;94199.03;5057638;28;20056;-76
2022/04/30 11:14:11;;;;;;;8.90;3.35;;;;;;;20.62;34.11;94202.53;5062394;28;20029;-75
2022/04/30 11:16:42;;;;;;;10.30;3.00;;;;;;;20.75;33.58;94196.88;5062318;28;20215;-75
2022/04/30 11:19:17;;;;;;;8.38;3.05;;;;;;;20.93;33.83;94192.44;5062287;28;20029;-77
2022/04/30 11:21:54;;;;;;;11.77;3.60;;;;;;;20.79;32.99;94198.47;5062145;28;20024;-75
2022/04/30 11:24:31;;;;;;;5.90;3.20;;;;;;;20.74;31.69;94195.31;5062162;28;20021;-75
2022/04/30 11:27:03;;;;;;;5.05;3.40;;;;;;;20.78;34.16;94196.13;5062184;28;20013;-76
2022/04/30 11:29:29;;;;;;;6.97;3.75;;;;;;;20.94;33.87;94193.22;5062134;28;20016;-75
2022/04/30 11:31:55;;;;;;;5.97;3.40;;;;;;;21.21;32.78;94196.59;5061984;28;20114;-75
2022/04/30 11:34:21;;;;;;;6.53;2.90;;;;;;;21.28;32.63;94188.53;5062026;28;20025;-74
2022/04/30 11:36:52;;;;;;;8.35;3.67;;;;;;;21.48;32.02;94191.06;5061984;28;20021;-75
2022/04/30 11:39:19;;;;;;;7.07;3.78;;;;;;;21.61;31.71;94203.19;5060647;28;20021;-75
2022/04/30 11:41:50;;;;;;;8.13;3.17;;;;;;;21.78;31.44;94201.78;5062007;28;20027;-74
2022/04/30 11:44:17;;;;;;;9.75;5.20;;;;;;;21.96;31.33;94196.47;5061936;28;20025;-75
2022/04/30 11:46:45;;;;;;;7.63;3.70;;;;;;;22.12;31.48;94188.81;5061654;28;20024;-73
2022/04/30 11:49:13;;;;;;;4.75;3.08;;;;;;;22.17;30.98;94183.03;5061172;28;20029;-74
2022/04/30 11:51:40;;;;;;;8.80;3.50;;;;;;;22.35;31.08;94180.47;5061640;28;20096;-72
2022/04/30 11:54:11;;;;;;;13.38;3.40;;;;;;;22.45;32.91;94189.81;5061933;28;20090;-74
2022/04/30 11:56:38;;;;;;;6.22;3.17;;;;;;;22.44;30.59;94182.81;5063462;28;20139;-75